Aviation Digital Data Service (ADDS)

Output produced by METARs form (2223 UTC 30 June 2022)
found at http://www.aviationweather.gov/metar/data/
 
Forecast for: RJFT (KUMAMOTO(CIV/JAS, JP)
Text: TAF RJFT 301706Z 3018/0200 06003KT 9999 FEW030
Forecast period: 1800 UTC 30 June 2022 to 0000 UTC 01 July 2022
Forecast type: FROM: standard forecast or significant change
Winds: from the ENE (60 degrees) at 3 MPH (3 knots; 1.5 m/s)
Visibility: 6 or more miles (10+ km)
Ceiling: at least 12,000 feet AGL
Clouds: few clouds at 3000 feet AGL
Weather: no significant weather forecast for this period
Text: BECMG 0100/0102 23008KT
Forecast period: 0000 to 1200 UTC 01 July 2022
Forecast type: BECOMING: Conditions expected to become as follows by 0200 UTC 01 July 2022
Winds: from the SW (230 degrees) at 9 MPH (8 knots; 4.1 m/s)
Visibility: 6 or more miles (10+ km)
Ceiling: at least 12,000 feet AGL
Clouds: few clouds at 3000 feet AGL
Weather: no significant weather forecast for this period
Text: BECMG 0112/0115 06005KT
Forecast period: 1200 UTC 01 July 2022 to 0000 UTC 02 July 2022
Forecast type: BECOMING: Conditions expected to become as follows by 1500 UTC 01 July 2022
Winds: from the ENE (60 degrees) at 6 MPH (5 knots; 2.6 m/s)
Visibility: 6 or more miles (10+ km)
Ceiling: at least 12,000 feet AGL
Clouds: few clouds at 3000 feet AGL
Weather: no significant weather forecast for this period